首页
METAR-TAF:

METAR-TAF

机场 :

Waddington, 英格兰

纬度: 53-10N, 经度: 000-31W, 海拔: 68米

当前天气观测

该预报发布于1小时和4分钟前的05:50 UTC
风速4节,风向西
温度 4°C
湿度 81%
气压 1015 hPa
能见度10公里或以上

METAR: EGXW 030550Z AUTO 26004KT 9999 OVC050/// 04/01 Q1015

时间: 07:54 (06:54 UTC)

预报

该预报发布于2小时和33分钟前的04:21 UTC
预报有效从03日的 06点(UTC)到 03日的 24点(UTC)
风速6节,风向西
能见度10公里或以上
多云层高于4500英尺

TAF: EGXW 030421Z 0306/0324 26006KT 9999 BKN045

超过4000个机场的气象观测和天气预报(METAR&TAF报告)。

可查询的气象台以黄色和红色小点在地图上表示。

将鼠标移到小点上方,可查看气象台名称。

然后点击查看天气观测和预报。

如需切换地图:点击带黑十字的绿色按钮放大地图;点击带横线的绿色按钮缩小地图;或者点击绿色箭头查看邻近地区的地图。


METAR-TAF: